createdAt,value
2017-11-17T00:01:42.395Z,61.42
2017-11-17T00:04:09.918Z,64.62
2017-11-17T00:06:37.422Z,50.38
2017-11-17T00:09:04.940Z,59.90
2017-11-17T00:11:32.433Z,52.10
2017-11-17T00:13:59.949Z,57.03
2017-11-17T00:16:28.214Z,69.80
2017-11-17T00:18:55.726Z,64.40
2017-11-17T00:21:23.221Z,48.65
2017-11-17T00:23:50.727Z,58.53
2017-11-17T00:26:18.260Z,61.33
2017-11-17T00:28:45.771Z,56.83
2017-11-17T00:31:13.314Z,55.80
2017-11-17T00:33:40.816Z,58.20
2017-11-17T00:36:08.309Z,54.70
2017-11-17T00:38:36.594Z,59.08
2017-11-17T00:41:04.086Z,55.42
2017-11-17T00:43:31.619Z,55.00
2017-11-17T00:45:59.116Z,56.95
2017-11-17T00:48:26.633Z,55.97
2017-11-17T00:50:54.122Z,56.22
2017-11-17T00:53:21.625Z,49.92
2017-11-17T00:55:49.906Z,60.75
2017-11-17T00:58:18.164Z,50.83
2017-11-17T01:00:45.694Z,55.17
2017-11-17T01:03:13.194Z,60.88
2017-11-17T01:05:41.481Z,56.15
2017-11-17T01:08:09.753Z,61.97
2017-11-17T01:10:38.033Z,53.20
2017-11-17T01:13:06.301Z,52.10
2017-11-17T01:15:33.798Z,51.28
2017-11-17T01:18:01.321Z,52.95
2017-11-17T01:20:28.822Z,62.60
2017-11-17T01:22:56.342Z,49.13
2017-11-17T01:25:23.838Z,53.58
2017-11-17T01:27:51.329Z,50.95
2017-11-17T01:30:18.841Z,56.05
2017-11-17T01:32:47.102Z,58.95
2017-11-17T01:35:15.385Z,50.03
2017-11-17T01:37:42.893Z,55.22
2017-11-17T01:40:10.406Z,46.92
2017-11-17T01:42:38.665Z,49.38
2017-11-17T01:45:06.157Z,56.10
2017-11-17T01:47:33.672Z,53.55
2017-11-17T01:50:01.183Z,56.37
2017-11-17T01:52:28.706Z,48.30
2017-11-17T01:54:56.207Z,46.67
2017-11-17T01:57:23.703Z,60.20
2017-11-17T01:59:51.230Z,51.88
2017-11-17T02:02:20.680Z,58.78
2017-11-17T02:04:48.194Z,54.58
2017-11-17T02:07:15.693Z,60.17
2017-11-17T02:09:43.193Z,57.30
2017-11-17T02:12:10.718Z,45.47
2017-11-17T02:14:38.224Z,62.10
2017-11-17T02:17:05.739Z,50.50
2017-11-17T02:19:33.242Z,51.22
2017-11-17T02:22:00.765Z,53.63
2017-11-17T02:24:28.266Z,59.05
2017-11-17T02:26:55.761Z,42.70
2017-11-17T02:29:23.283Z,45.38
2017-11-17T02:31:50.778Z,55.35
2017-11-17T02:34:18.297Z,51.97
2017-11-17T02:36:45.794Z,52.72
2017-11-17T02:39:13.313Z,53.38
2017-11-17T02:41:40.818Z,55.92
2017-11-17T02:44:08.345Z,46.90
2017-11-17T02:46:35.848Z,53.03
2017-11-17T02:49:03.351Z,69.37
2017-11-17T02:51:30.885Z,58.08
2017-11-17T02:53:59.142Z,49.58
2017-11-17T02:56:26.663Z,56.70
2017-11-17T02:58:54.158Z,52.60
2017-11-17T03:01:21.686Z,54.08
2017-11-17T03:03:49.181Z,62.05
2017-11-17T03:06:16.697Z,62.90
2017-11-17T03:08:44.198Z,52.92
2017-11-17T03:11:11.698Z,56.42
2017-11-17T03:13:39.214Z,58.95
2017-11-17T03:16:06.706Z,57.90
2017-11-17T03:18:34.982Z,54.50
2017-11-17T03:21:03.245Z,66.85
2017-11-17T03:23:31.542Z,62.67
2017-11-17T03:25:59.806Z,58.78
2017-11-17T03:28:28.092Z,61.72
2017-11-17T03:30:55.600Z,60.05
2017-11-17T03:33:23.097Z,64.50
2017-11-17T03:35:50.620Z,57.25
2017-11-17T03:38:18.109Z,54.50
2017-11-17T03:40:45.626Z,53.65
2017-11-17T03:43:13.118Z,54.92
2017-11-17T03:45:40.643Z,57.55
2017-11-17T03:48:08.150Z,56.70
2017-11-17T03:50:36.430Z,52.35
2017-11-17T03:53:03.926Z,54.58
2017-11-17T03:55:31.434Z,56.97
2017-11-17T03:57:58.954Z,49.88
2017-11-17T04:00:26.459Z,45.42
2017-11-17T04:02:53.970Z,55.03
2017-11-17T04:05:21.470Z,57.28
2017-11-17T04:07:48.997Z,43.72
2017-11-17T04:10:16.507Z,48.78
2017-11-17T04:12:44.800Z,54.83
2017-11-17T04:15:13.071Z,51.92
2017-11-17T04:17:41.337Z,55.60
2017-11-17T04:20:08.854Z,58.85
2017-11-17T04:22:36.345Z,58.22
2017-11-17T04:25:03.875Z,58.83
2017-11-17T04:27:31.370Z,50.58
2017-11-17T04:29:58.894Z,47.90
2017-11-17T04:32:26.393Z,49.10
2017-11-17T04:34:53.885Z,46.72
2017-11-17T04:37:21.400Z,60.30
2017-11-17T04:39:48.897Z,53.45
2017-11-17T04:42:16.417Z,62.60
2017-11-17T04:44:43.924Z,56.75
2017-11-17T04:47:11.437Z,56.85
2017-11-17T04:49:38.933Z,63.03
2017-11-17T04:52:06.454Z,52.17
2017-11-17T04:54:34.748Z,58.40
2017-11-17T04:57:02.805Z,50.80
2017-11-17T04:59:30.314Z,53.00
2017-11-17T05:01:57.809Z,62.60
2017-11-17T05:04:25.317Z,67.35
2017-11-17T05:06:52.800Z,57.10
2017-11-17T05:09:20.314Z,50.33
2017-11-17T05:11:47.832Z,63.60
2017-11-17T05:14:15.340Z,65.45
2017-11-17T05:16:43.604Z,51.45
2017-11-17T05:19:11.140Z,51.40
2017-11-17T05:21:38.656Z,47.72
2017-11-17T05:24:06.156Z,49.72
2017-11-17T05:26:33.669Z,58.25
2017-11-17T05:29:01.923Z,61.53
2017-11-17T05:31:30.209Z,47.35
2017-11-17T05:33:58.477Z,45.75
2017-11-17T05:36:25.978Z,49.75
2017-11-17T05:38:53.486Z,46.58
2017-11-17T05:41:20.977Z,48.90
2017-11-17T05:43:49.249Z,52.28
2017-11-17T05:46:17.504Z,56.42
2017-11-17T05:48:45.009Z,49.88
2017-11-17T05:51:12.493Z,54.05
2017-11-17T05:53:40.021Z,48.50
2017-11-17T05:56:07.520Z,55.17
2017-11-17T05:58:35.034Z,46.00
2017-11-17T06:01:02.531Z,55.92
2017-11-17T06:03:30.021Z,56.20
2017-11-17T06:05:57.529Z,46.72
2017-11-17T06:08:25.025Z,43.75
2017-11-17T06:10:52.538Z,53.38
2017-11-17T06:13:20.033Z,59.92
2017-11-17T06:15:47.541Z,59.05
2017-11-17T06:18:15.797Z,55.53
2017-11-17T06:20:43.319Z,53.15
2017-11-17T06:23:10.839Z,49.60
2017-11-17T06:25:39.101Z,49.03
2017-11-17T06:28:07.389Z,46.25
2017-11-17T06:30:35.763Z,50.28
2017-11-17T06:33:03.309Z,47.13
2017-11-17T06:35:30.812Z,47.22
2017-11-17T06:37:58.321Z,46.75
2017-11-17T06:40:25.810Z,39.90
2017-11-17T06:42:54.076Z,44.50
2017-11-17T06:45:22.360Z,39.75
2017-11-17T06:47:50.626Z,55.97
2017-11-17T06:50:18.929Z,45.85
2017-11-17T06:52:46.429Z,51.35
2017-11-17T06:55:13.938Z,52.08
2017-11-17T06:57:42.211Z,50.12
2017-11-17T07:00:10.473Z,43.53
2017-11-17T07:02:37.985Z,43.30
2017-11-17T07:05:05.478Z,48.15
2017-11-17T07:07:32.995Z,53.60
2017-11-17T07:10:00.502Z,44.05
2017-11-17T07:12:28.264Z,51.72
2017-11-17T07:14:55.798Z,44.70
2017-11-17T07:17:23.294Z,51.17
2017-11-17T07:19:51.577Z,44.10
2017-11-17T07:22:19.839Z,55.58
2017-11-17T07:24:47.349Z,54.10
2017-11-17T07:27:14.842Z,48.22
2017-11-17T07:29:42.335Z,55.85
2017-11-17T07:32:10.618Z,60.20
2017-11-17T07:34:38.875Z,53.53
2017-11-17T07:37:06.404Z,52.05
2017-11-17T07:39:33.899Z,58.85
2017-11-17T07:42:02.177Z,66.37
2017-11-17T07:44:29.698Z,53.30
2017-11-17T07:46:57.194Z,61.33
2017-11-17T07:49:24.711Z,62.62
2017-11-17T07:51:52.211Z,52.88
2017-11-17T07:54:19.749Z,70.97
2017-11-17T07:56:47.238Z,52.38
2017-11-17T07:59:15.534Z,68.85
2017-11-17T08:01:43.034Z,54.40
2017-11-17T08:04:10.543Z,56.03
2017-11-17T08:06:38.823Z,57.40
2017-11-17T08:09:07.099Z,71.93
2017-11-17T08:11:35.376Z,66.47
2017-11-17T08:14:02.870Z,61.40
2017-11-17T08:16:30.388Z,58.60
2017-11-17T08:18:58.645Z,71.80
2017-11-17T08:21:26.158Z,55.10
2017-11-17T08:23:53.659Z,57.45
2017-11-17T08:26:21.151Z,57.40
2017-11-17T08:28:49.438Z,53.33
2017-11-17T08:31:16.935Z,63.70
2017-11-17T08:33:44.449Z,56.22
2017-11-17T08:36:12.719Z,54.67
2017-11-17T08:38:40.991Z,47.10
2017-11-17T08:41:09.289Z,66.85
2017-11-17T08:43:37.555Z,49.90
2017-11-17T08:46:05.837Z,64.28
2017-11-17T08:48:34.129Z,48.30
2017-11-17T08:51:01.646Z,58.55
2017-11-17T08:53:29.147Z,52.78
2017-11-17T08:55:56.653Z,61.60
2017-11-17T08:58:24.186Z,58.40
2017-11-17T09:00:51.680Z,62.45
2017-11-17T09:03:19.213Z,63.58
2017-11-17T09:05:46.721Z,53.80
2017-11-17T09:08:14.985Z,59.30
2017-11-17T09:10:42.542Z,56.17
2017-11-17T09:13:10.046Z,52.08
2017-11-17T09:15:37.561Z,47.13
2017-11-17T09:18:05.098Z,58.95
2017-11-17T09:20:32.606Z,51.28
2017-11-17T09:23:00.870Z,55.33
2017-11-17T09:25:29.142Z,56.28
2017-11-17T09:27:57.570Z,42.58
2017-11-17T09:30:25.078Z,50.28
2017-11-17T09:32:52.595Z,52.25
2017-11-17T09:35:20.093Z,42.85
2017-11-17T09:37:47.616Z,46.67
2017-11-17T09:40:15.872Z,47.25
2017-11-17T09:42:43.360Z,40.53
2017-11-17T09:45:10.873Z,43.50
2017-11-17T09:47:39.139Z,40.65
2017-11-17T09:50:07.425Z,49.05
2017-11-17T09:52:35.696Z,42.85
2017-11-17T09:55:03.986Z,54.83
2017-11-17T09:57:32.241Z,61.25
2017-11-17T09:59:59.743Z,59.85
2017-11-17T10:02:27.265Z,66.40
2017-11-17T10:04:54.773Z,60.63
2017-11-17T10:07:22.289Z,65.28
2017-11-17T10:09:50.557Z,57.67
2017-11-17T10:12:18.057Z,54.22
2017-11-17T10:14:45.574Z,52.65
2017-11-17T10:17:13.082Z,42.60
2017-11-17T10:19:40.606Z,37.80
2017-11-17T10:22:08.920Z,41.67
2017-11-17T10:24:36.430Z,45.12
2017-11-17T10:27:03.926Z,45.28
2017-11-17T10:29:31.425Z,60.28
2017-11-17T10:31:58.942Z,48.97
2017-11-17T10:34:26.442Z,65.50
2017-11-17T10:36:53.962Z,58.95
2017-11-17T10:39:21.462Z,46.00
2017-11-17T10:41:48.979Z,42.53
2017-11-17T10:44:16.482Z,49.50
2017-11-17T10:46:44.062Z,47.38
2017-11-17T10:49:11.581Z,49.58
2017-11-17T10:51:39.078Z,39.50
2017-11-17T10:54:06.608Z,59.35
2017-11-17T10:56:34.922Z,49.22
2017-11-17T10:59:04.189Z,50.53
2017-11-17T11:01:31.690Z,59.92
2017-11-17T11:03:59.977Z,62.67
2017-11-17T11:06:28.249Z,62.83
2017-11-17T11:08:56.510Z,63.30
2017-11-17T11:11:29.658Z,75.15
2017-11-17T11:13:57.166Z,89.47
2017-11-17T11:16:24.678Z,74.93
2017-11-17T11:18:52.181Z,85.72
2017-11-17T11:21:19.713Z,85.70
2017-11-17T11:23:47.219Z,89.18
2017-11-17T11:26:15.485Z,85.87
2017-11-17T11:28:43.014Z,66.60
2017-11-17T11:31:10.516Z,84.15
2017-11-17T11:33:38.811Z,71.45
2017-11-17T11:36:06.305Z,71.25
2017-11-17T11:38:33.826Z,66.40
2017-11-17T11:41:01.329Z,79.65
2017-11-17T11:43:28.834Z,54.92
2017-11-17T11:45:57.121Z,46.80
2017-11-17T11:48:25.382Z,49.22
2017-11-17T11:50:53.665Z,61.22
2017-11-17T11:53:21.929Z,55.15
2017-11-17T11:55:49.467Z,51.72
2017-11-17T11:58:17.033Z,46.75
2017-11-17T12:00:44.541Z,45.12
2017-11-17T12:03:12.056Z,47.83
2017-11-17T12:05:39.552Z,59.45
2017-11-17T12:08:07.825Z,44.78
2017-11-17T12:10:36.090Z,57.20
2017-11-17T12:13:04.370Z,55.28
2017-11-17T12:15:32.625Z,59.15
2017-11-17T12:18:00.139Z,57.05
2017-11-17T12:20:28.410Z,62.40
2017-11-17T12:22:55.909Z,55.65
2017-11-17T12:25:23.417Z,65.87
2017-11-17T12:27:50.915Z,55.35
2017-11-17T12:30:18.427Z,58.40
2017-11-17T12:32:46.708Z,51.90
2017-11-17T12:35:14.995Z,62.97
2017-11-17T12:37:42.486Z,66.93
2017-11-17T12:40:10.027Z,77.68
2017-11-17T12:42:37.525Z,79.45
2017-11-17T12:45:05.018Z,63.85
2017-11-17T12:47:32.547Z,65.65
2017-11-17T12:50:00.081Z,71.22
2017-11-17T12:52:28.369Z,59.38
2017-11-17T12:54:55.879Z,63.85
2017-11-17T12:57:24.179Z,73.50
2017-11-17T12:59:51.673Z,90.35
2017-11-17T13:02:19.177Z,74.37
2017-11-17T13:04:46.689Z,71.35
2017-11-17T13:07:14.183Z,77.28
2017-11-17T13:09:42.461Z,70.50
2017-11-17T13:12:10.742Z,73.80
2017-11-17T13:14:39.035Z,71.90
2017-11-17T13:17:06.545Z,74.35
2017-11-17T13:19:34.039Z,82.55
2017-11-17T13:22:02.318Z,82.53
2017-11-17T13:24:30.578Z,87.55
2017-11-17T13:26:58.093Z,85.18
2017-11-17T13:29:25.586Z,75.25
2017-11-17T13:31:53.107Z,87.30
2017-11-17T13:34:20.602Z,77.10
2017-11-17T13:36:48.120Z,79.95
2017-11-17T13:39:15.647Z,92.72
2017-11-17T13:41:43.909Z,75.30
2017-11-17T13:44:11.430Z,88.57
2017-11-17T13:46:38.927Z,99.45
2017-11-17T13:49:07.584Z,67.65
2017-11-17T13:51:35.887Z,92.07
2017-11-17T13:54:03.410Z,59.17
2017-11-17T13:56:31.685Z,68.93
2017-11-17T13:58:59.173Z,63.40
2017-11-17T14:01:26.697Z,54.33
2017-11-17T14:03:54.194Z,65.20
2017-11-17T14:06:21.706Z,67.65
2017-11-17T14:08:49.198Z,57.15
2017-11-17T14:11:16.743Z,62.85
2017-11-17T14:13:44.233Z,60.28
2017-11-17T14:16:11.738Z,69.65
2017-11-17T14:18:39.257Z,78.00
2017-11-17T14:21:06.746Z,73.57
2017-11-17T14:23:34.475Z,81.80
2017-11-17T14:26:03.139Z,89.30
2017-11-17T14:28:30.662Z,75.72
2017-11-17T14:30:58.174Z,80.60
2017-11-17T14:33:25.696Z,90.78
2017-11-17T14:35:53.189Z,93.95
2017-11-17T14:38:20.682Z,94.78
2017-11-17T14:40:49.993Z,116.25
2017-11-17T14:43:18.261Z,101.85
2017-11-17T14:45:46.558Z,106.68
2017-11-17T14:48:14.069Z,96.80
2017-11-17T14:50:41.603Z,96.03
2017-11-17T14:53:09.105Z,94.05
2017-11-17T14:55:36.620Z,103.87
2017-11-17T14:58:04.152Z,87.70
2017-11-17T15:00:31.658Z,88.28
2017-11-17T15:02:59.183Z,102.87
2017-11-17T15:05:26.692Z,121.18
2017-11-17T15:07:54.223Z,113.93
2017-11-17T15:10:21.724Z,108.97
2017-11-17T15:12:49.226Z,120.75
2017-11-17T15:15:16.759Z,115.95
2017-11-17T15:17:45.031Z,114.95
2017-11-17T15:20:13.319Z,123.70
2017-11-17T15:22:40.830Z,110.47
2017-11-17T15:25:08.358Z,131.82
2017-11-17T15:27:35.866Z,133.52
2017-11-17T15:30:03.606Z,122.80
2017-11-17T15:32:31.115Z,108.37
2017-11-17T15:34:59.383Z,116.55
2017-11-17T15:37:27.673Z,141.10
2017-11-17T15:39:55.934Z,114.65
2017-11-17T15:42:23.456Z,126.97
2017-11-17T15:44:50.949Z,122.35
2017-11-17T15:47:18.470Z,110.28
2017-11-17T15:49:45.965Z,121.32
2017-11-17T15:52:13.487Z,121.20
2017-11-17T15:54:40.990Z,107.55
2017-11-17T15:57:09.276Z,122.37
2017-11-17T15:59:37.575Z,110.97
2017-11-17T16:02:05.082Z,107.07
2017-11-17T16:04:32.613Z,115.78
2017-11-17T16:07:00.109Z,105.15
2017-11-17T16:09:27.645Z,100.68
2017-11-17T16:11:55.146Z,100.43
2017-11-17T16:14:22.662Z,107.70
2017-11-17T16:16:50.166Z,120.25
2017-11-17T16:19:18.433Z,118.25
2017-11-17T16:21:45.949Z,103.20
2017-11-17T16:24:13.445Z,98.70
2017-11-17T16:26:40.963Z,112.55
2017-11-17T16:29:08.479Z,107.65
2017-11-17T16:31:36.775Z,129.32
2017-11-17T16:34:05.052Z,115.15
2017-11-17T16:36:33.319Z,143.05
2017-11-17T16:39:01.598Z,110.05
2017-11-17T16:41:29.885Z,129.80
2017-11-17T16:43:58.162Z,102.57
2017-11-17T16:46:26.426Z,110.50
2017-11-17T16:48:54.718Z,102.18
2017-11-17T16:51:22.982Z,91.68
2017-11-17T16:53:51.470Z,111.45
2017-11-17T16:56:19.762Z,103.25
2017-11-17T16:58:47.270Z,114.80
2017-11-17T17:01:14.791Z,122.78
2017-11-17T17:03:42.304Z,103.57
2017-11-17T17:06:09.891Z,106.05
2017-11-17T17:08:38.167Z,100.38
2017-11-17T17:11:06.458Z,110.95
2017-11-17T17:13:33.957Z,107.60
2017-11-17T17:16:01.460Z,94.18
2017-11-17T17:18:29.742Z,92.78
2017-11-17T17:20:57.236Z,86.07
2017-11-17T17:23:24.754Z,74.62
2017-11-17T17:25:53.024Z,90.12
2017-11-17T17:28:21.305Z,71.97
2017-11-17T17:30:49.570Z,70.10
2017-11-17T17:33:17.086Z,102.35
2017-11-17T17:35:44.624Z,99.20
2017-11-17T17:38:12.877Z,106.53
2017-11-17T17:40:41.157Z,95.60
2017-11-17T17:43:09.427Z,95.85
2017-11-17T17:45:36.938Z,94.72
2017-11-17T17:48:04.433Z,84.62
2017-11-17T17:50:31.925Z,77.18
2017-11-17T17:53:00.201Z,93.75
2017-11-17T17:55:28.461Z,91.82
2017-11-17T17:57:55.982Z,95.93
2017-11-17T18:00:23.482Z,85.35
2017-11-17T18:02:51.766Z,98.60
2017-11-17T18:05:20.048Z,105.65
2017-11-17T18:07:48.329Z,93.60
2017-11-17T18:10:16.591Z,94.37
2017-11-17T18:12:44.099Z,108.37
2017-11-17T18:15:11.617Z,108.72
2017-11-17T18:17:39.898Z,103.43
2017-11-17T18:20:08.190Z,105.72
2017-11-17T18:22:35.741Z,104.03
2017-11-17T18:25:03.226Z,110.03
2017-11-17T18:27:30.771Z,112.22
2017-11-17T18:29:59.050Z,116.50
2017-11-17T18:32:26.597Z,123.50
2017-11-17T18:34:54.064Z,118.72
2017-11-17T18:37:21.581Z,122.50
2017-11-17T18:39:49.130Z,116.45
2017-11-17T18:42:16.665Z,137.25
2017-11-17T18:44:44.157Z,138.37
2017-11-17T18:47:11.724Z,137.18
2017-11-17T18:49:40.175Z,141.65
2017-11-17T18:52:07.698Z,169.93
2017-11-17T18:54:36.893Z,207.48
2017-11-17T18:57:05.201Z,167.75
2017-11-17T18:59:33.517Z,141.18
2017-11-17T19:02:00.966Z,128.57
2017-11-17T19:04:28.507Z,175.05
2017-11-17T19:06:56.019Z,231.98
2017-11-17T19:09:24.338Z,123.15
2017-11-17T19:11:52.602Z,163.70
2017-11-17T19:14:20.110Z,129.27
2017-11-17T19:16:47.686Z,144.75
2017-11-17T19:19:16.159Z,156.98
2017-11-17T19:21:43.689Z,135.73
2017-11-17T19:24:11.198Z,196.65
2017-11-17T19:26:39.467Z,111.93
2017-11-17T19:29:07.767Z,119.18
2017-11-17T19:31:35.268Z,125.43
2017-11-17T19:34:02.790Z,129.60
2017-11-17T19:36:30.291Z,136.65
2017-11-17T19:38:57.824Z,135.32
2017-11-17T19:41:25.340Z,133.73
2017-11-17T19:43:52.851Z,125.10
2017-11-17T19:46:20.387Z,128.52
2017-11-17T19:48:47.886Z,131.02
2017-11-17T19:51:15.382Z,117.62
2017-11-17T19:53:43.669Z,146.43
2017-11-17T19:56:11.950Z,136.68
2017-11-17T19:58:40.239Z,154.35
2017-11-17T20:01:07.742Z,130.10
2017-11-17T20:03:35.314Z,123.80
2017-11-17T20:06:02.835Z,170.95
2017-11-17T20:08:30.340Z,132.27
2017-11-17T20:10:57.860Z,114.40
2017-11-17T20:13:25.380Z,97.30
2017-11-17T20:15:53.642Z,94.37
2017-11-17T20:18:21.164Z,121.72
2017-11-17T20:20:49.431Z,94.87
2017-11-17T20:23:16.954Z,80.57
2017-11-17T20:25:45.236Z,69.32
2017-11-17T20:28:13.515Z,68.37
2017-11-17T20:30:41.784Z,75.28
2017-11-17T20:33:10.075Z,63.65
2017-11-17T20:35:38.354Z,65.35
2017-11-17T20:38:05.866Z,71.75
2017-11-17T20:40:33.381Z,73.03
2017-11-17T20:43:00.883Z,66.90
2017-11-17T20:45:28.410Z,78.00
2017-11-17T20:47:55.910Z,79.70
2017-11-17T20:50:23.432Z,85.82
2017-11-17T20:52:50.934Z,88.18
2017-11-17T20:55:18.430Z,84.47
2017-11-17T20:57:46.806Z,71.12
2017-11-17T21:00:15.075Z,78.55
2017-11-17T21:02:43.364Z,90.12
2017-11-17T21:05:10.876Z,76.47
2017-11-17T21:07:38.374Z,75.47
2017-11-17T21:10:06.650Z,67.50
2017-11-17T21:12:34.910Z,79.70
2017-11-17T21:15:02.425Z,81.65
2017-11-17T21:17:29.917Z,78.62
2017-11-17T21:19:57.437Z,76.00
2017-11-17T21:22:24.934Z,55.15
2017-11-17T21:24:52.432Z,69.68
2017-11-17T21:27:20.731Z,69.85
2017-11-17T21:29:48.234Z,67.40
2017-11-17T21:32:15.745Z,63.28
2017-11-17T21:34:43.247Z,64.72
2017-11-17T21:37:10.755Z,57.97
2017-11-17T21:39:38.270Z,62.65
2017-11-17T21:42:05.780Z,62.53
2017-11-17T21:44:33.296Z,65.87
2017-11-17T21:47:00.803Z,63.95
2017-11-17T21:49:28.320Z,75.40
2017-11-17T21:51:55.818Z,75.95
2017-11-17T21:54:23.323Z,87.80
2017-11-17T21:56:50.846Z,79.82
2017-11-17T21:59:18.346Z,86.97
2017-11-17T22:01:45.876Z,86.03
2017-11-17T22:04:13.371Z,90.05
2017-11-17T22:06:40.866Z,73.28
2017-11-17T22:09:08.389Z,91.22
2017-11-17T22:11:35.883Z,91.65
2017-11-17T22:14:03.393Z,98.45
2017-11-17T22:16:30.894Z,99.93
2017-11-17T22:18:59.177Z,81.53
2017-11-17T22:21:26.690Z,109.30
2017-11-17T22:23:54.223Z,92.55
2017-11-17T22:26:21.725Z,103.38
2017-11-17T22:28:49.222Z,133.18
2017-11-17T22:31:16.737Z,88.68
2017-11-17T22:33:44.243Z,144.20
2017-11-17T22:36:11.767Z,140.07
2017-11-17T22:38:39.266Z,105.40
2017-11-17T22:41:06.794Z,114.68
2017-11-17T22:43:35.063Z,109.75
2017-11-17T22:46:02.562Z,155.25
2017-11-17T22:48:30.090Z,114.82
2017-11-17T22:50:58.374Z,118.53
2017-11-17T22:53:25.912Z,119.03
2017-11-17T22:55:53.418Z,129.20
2017-11-17T22:58:20.947Z,117.35
2017-11-17T23:00:49.214Z,101.05
2017-11-17T23:03:16.735Z,99.22
2017-11-17T23:05:44.232Z,112.82
2017-11-17T23:08:11.729Z,102.55
2017-11-17T23:10:39.249Z,104.65
2017-11-17T23:13:06.752Z,104.20
2017-11-17T23:15:34.282Z,123.60
2017-11-17T23:18:02.542Z,116.78
2017-11-17T23:20:30.034Z,135.20
2017-11-17T23:22:57.565Z,154.87
2017-11-17T23:25:25.070Z,120.85
2017-11-17T23:27:52.584Z,165.75
2017-11-17T23:30:20.082Z,103.10
2017-11-17T23:32:47.591Z,113.57
2017-11-17T23:35:15.118Z,157.48
2017-11-17T23:37:42.627Z,126.32
2017-11-17T23:40:10.927Z,95.85
2017-11-17T23:42:38.440Z,112.35
2017-11-17T23:45:05.972Z,142.82
2017-11-17T23:47:33.482Z,145.55
2017-11-17T23:50:00.982Z,102.40
2017-11-17T23:52:28.506Z,145.70
2017-11-17T23:54:56.773Z,145.43
2017-11-17T23:57:24.297Z,107.82
2017-11-17T23:59:52.566Z,143.68
